createdAt,value
2023-03-08T00:01:46.365Z,32.15
2023-03-08T00:04:16.175Z,32.11
2023-03-08T00:06:45.086Z,32.11
2023-03-08T00:09:13.759Z,32.08
2023-03-08T00:11:42.012Z,32.05
2023-03-08T00:14:10.554Z,32.06
2023-03-08T00:16:40.307Z,32.00
2023-03-08T00:19:09.478Z,31.89
2023-03-08T00:21:38.053Z,31.83
2023-03-08T00:24:08.122Z,31.84
2023-03-08T00:26:37.221Z,31.73
2023-03-08T00:29:06.065Z,31.67
2023-03-08T00:31:35.952Z,31.62
2023-03-08T00:34:06.130Z,31.64
2023-03-08T00:36:36.375Z,31.60
2023-03-08T00:39:06.055Z,31.70
2023-03-08T00:41:35.766Z,31.56
2023-03-08T00:44:06.111Z,31.63
2023-03-08T00:46:35.814Z,31.55
2023-03-08T00:49:05.376Z,31.61
2023-03-08T00:51:34.411Z,31.61
2023-03-08T00:54:03.860Z,31.56
2023-03-08T00:56:33.328Z,31.46
2023-03-08T00:59:02.062Z,31.47
2023-03-08T01:01:32.109Z,31.40
2023-03-08T01:04:02.544Z,31.33
2023-03-08T01:06:33.211Z,31.73
2023-03-08T01:09:02.790Z,31.85
2023-03-08T01:11:37.862Z,31.84
2023-03-08T01:14:12.248Z,31.94
2023-03-08T01:16:42.212Z,32.06
2023-03-08T01:19:12.634Z,32.01
2023-03-08T01:21:44.756Z,31.92
2023-03-08T01:24:14.264Z,31.70
2023-03-08T01:26:44.057Z,32.00
2023-03-08T01:29:12.505Z,31.88
2023-03-08T01:31:41.572Z,31.87
2023-03-08T01:34:10.964Z,31.84
2023-03-08T01:36:41.082Z,31.89
2023-03-08T01:39:11.976Z,32.90
2023-03-08T01:41:41.159Z,32.21
2023-03-08T01:44:17.610Z,31.85
2023-03-08T01:46:48.840Z,31.70
2023-03-08T01:49:26.840Z,31.57
2023-03-08T01:52:04.087Z,31.74
2023-03-08T01:54:42.979Z,31.56
2023-03-08T01:57:36.321Z,31.47
2023-03-08T02:00:13.406Z,31.14
2023-03-08T02:03:02.633Z,30.97
2023-03-08T02:05:33.245Z,30.89
2023-03-08T02:08:14.573Z,30.76
2023-03-08T02:10:46.065Z,31.08
2023-03-08T02:13:16.479Z,30.64
2023-03-08T02:15:46.212Z,30.46
2023-03-08T02:18:16.252Z,30.25
2023-03-08T02:20:46.162Z,30.11
2023-03-08T02:23:24.105Z,30.22
2023-03-08T02:26:04.058Z,30.26
2023-03-08T02:28:34.280Z,30.32
2023-03-08T02:31:04.234Z,30.29
2023-03-08T02:33:37.919Z,30.18
2023-03-08T02:36:09.897Z,30.17
2023-03-08T02:38:40.557Z,30.12
2023-03-08T02:41:10.206Z,30.06
2023-03-08T02:43:40.303Z,29.87
2023-03-08T02:46:12.150Z,29.93
2023-03-08T02:48:41.203Z,29.84
2023-03-08T02:51:10.567Z,29.95
2023-03-08T02:53:41.593Z,29.88
2023-03-08T02:56:10.813Z,29.87
2023-03-08T02:58:40.602Z,29.77
2023-03-08T03:01:14.404Z,29.68
2023-03-08T03:03:44.461Z,29.62
2023-03-08T03:06:22.759Z,29.73
2023-03-08T03:08:58.729Z,29.79
2023-03-08T03:11:29.675Z,29.53
2023-03-08T03:14:01.460Z,29.49
2023-03-08T03:16:38.888Z,29.86
2023-03-08T03:19:08.680Z,29.99
2023-03-08T03:21:40.306Z,29.61
2023-03-08T03:24:09.817Z,29.80
2023-03-08T03:26:50.383Z,29.84
2023-03-08T03:29:20.752Z,29.68
2023-03-08T03:31:54.301Z,29.75
2023-03-08T03:34:23.825Z,29.60
2023-03-08T03:36:53.680Z,29.66
2023-03-08T03:39:24.582Z,29.72
2023-03-08T03:41:54.112Z,30.05
2023-03-08T03:44:23.737Z,30.30
2023-03-08T03:46:53.779Z,29.99
2023-03-08T03:49:29.127Z,29.44
2023-03-08T03:51:59.588Z,29.26
2023-03-08T03:54:37.424Z,29.61
2023-03-08T03:57:06.302Z,29.53
2023-03-08T03:59:40.209Z,29.63
2023-03-08T04:02:09.964Z,29.21
2023-03-08T04:04:44.070Z,29.38
2023-03-08T04:07:16.069Z,28.86
2023-03-08T04:09:53.318Z,29.00
2023-03-08T04:12:22.839Z,28.54
2023-03-08T04:14:53.620Z,28.30
2023-03-08T04:17:24.201Z,28.30
2023-03-08T04:19:56.813Z,28.06
2023-03-08T04:22:26.065Z,28.22
2023-03-08T04:25:02.910Z,28.23
2023-03-08T04:27:52.052Z,28.29
2023-03-08T04:30:22.030Z,27.92
2023-03-08T04:32:52.062Z,27.87
2023-03-08T04:35:23.974Z,27.77
2023-03-08T04:37:58.307Z,28.16
2023-03-08T04:40:32.048Z,28.16
2023-03-08T04:43:05.008Z,29.09
2023-03-08T04:45:39.908Z,30.55
2023-03-08T04:48:13.537Z,29.54
2023-03-08T04:50:42.080Z,29.35
2023-03-08T04:53:12.087Z,29.21
2023-03-08T04:55:41.499Z,29.11
2023-03-08T04:58:12.042Z,29.17
2023-03-08T05:00:41.047Z,28.97
2023-03-08T05:03:12.091Z,29.15
2023-03-08T05:05:56.567Z,29.08
2023-03-08T05:08:26.131Z,30.04
2023-03-08T05:11:01.211Z,29.03
2023-03-08T05:13:39.956Z,29.45
2023-03-08T05:16:10.478Z,29.00
2023-03-08T05:18:40.498Z,28.68
2023-03-08T05:21:17.625Z,28.52
2023-03-08T05:23:48.903Z,27.93
2023-03-08T05:26:20.306Z,27.61
2023-03-08T05:28:51.946Z,27.49
2023-03-08T05:31:26.385Z,27.46
2023-03-08T05:33:58.025Z,27.48
2023-03-08T05:36:36.416Z,27.51
2023-03-08T05:39:14.451Z,27.59
2023-03-08T05:42:08.406Z,27.51
2023-03-08T05:44:41.835Z,27.46
2023-03-08T05:47:16.005Z,27.41
2023-03-08T05:49:46.061Z,27.53
2023-03-08T05:52:15.972Z,27.80
2023-03-08T05:54:45.478Z,28.01
2023-03-08T05:57:19.899Z,28.19
2023-03-08T05:59:50.127Z,28.12
2023-03-08T06:02:22.258Z,28.11
2023-03-08T06:04:56.683Z,28.15
2023-03-08T06:07:29.762Z,28.12
2023-03-08T06:10:08.480Z,28.14
2023-03-08T06:12:38.430Z,28.18
2023-03-08T06:15:10.458Z,28.22
2023-03-08T06:17:40.243Z,29.25
2023-03-08T06:20:10.232Z,29.71
2023-03-08T06:22:42.260Z,29.80
2023-03-08T06:25:12.092Z,29.44
2023-03-08T06:27:41.582Z,29.53
2023-03-08T06:30:18.473Z,29.54
2023-03-08T06:32:48.187Z,29.47
2023-03-08T06:35:17.355Z,28.44
2023-03-08T06:37:51.784Z,29.46
2023-03-08T06:40:21.490Z,29.02
2023-03-08T06:42:50.646Z,29.34
2023-03-08T06:45:20.014Z,29.74
2023-03-08T06:47:49.173Z,29.82
2023-03-08T06:50:18.791Z,29.68
2023-03-08T06:52:51.881Z,29.97
2023-03-08T06:55:31.944Z,29.06
2023-03-08T06:58:00.462Z,29.49
2023-03-08T07:00:30.630Z,29.74
2023-03-08T07:03:01.532Z,29.90
2023-03-08T07:05:32.124Z,29.77
2023-03-08T07:08:01.185Z,29.89
2023-03-08T07:10:31.976Z,29.66
2023-03-08T07:13:01.890Z,29.59
2023-03-08T07:15:30.881Z,29.74
2023-03-08T07:18:01.284Z,29.63
2023-03-08T07:20:31.123Z,29.49
2023-03-08T07:23:02.434Z,29.36
2023-03-08T07:25:32.175Z,28.87
2023-03-08T07:28:01.621Z,29.05
2023-03-08T07:30:31.849Z,28.90
2023-03-08T07:33:02.095Z,28.48
2023-03-08T07:35:31.923Z,28.33
2023-03-08T07:38:01.365Z,28.12
2023-03-08T07:40:31.740Z,28.12
2023-03-08T07:43:01.614Z,28.05
2023-03-08T07:45:49.900Z,28.13
2023-03-08T07:48:18.404Z,28.15
2023-03-08T07:50:48.050Z,28.15
2023-03-08T07:53:16.446Z,28.11
2023-03-08T07:55:45.920Z,28.04
2023-03-08T07:58:14.712Z,27.98
2023-03-08T08:00:44.289Z,27.95
2023-03-08T08:03:13.523Z,27.92
2023-03-08T08:05:42.259Z,28.33
2023-03-08T08:08:14.384Z,28.39
2023-03-08T08:10:45.543Z,28.39
2023-03-08T08:13:14.714Z,28.18
2023-03-08T08:15:44.207Z,28.41
2023-03-08T08:18:13.921Z,28.39
2023-03-08T08:20:42.253Z,28.41
2023-03-08T08:23:12.006Z,28.30
2023-03-08T08:25:41.391Z,28.40
2023-03-08T08:28:09.794Z,28.44
2023-03-08T08:30:38.626Z,28.46
2023-03-08T08:33:08.059Z,28.60
2023-03-08T08:35:43.476Z,28.30
2023-03-08T08:38:12.662Z,28.55
2023-03-08T08:40:41.637Z,28.54
2023-03-08T08:43:10.351Z,28.46
2023-03-08T08:45:45.403Z,28.49
2023-03-08T08:48:14.815Z,29.35
2023-03-08T08:50:45.172Z,28.79
2023-03-08T08:53:14.711Z,28.48
2023-03-08T08:55:45.947Z,28.23
2023-03-08T08:58:15.226Z,28.10
2023-03-08T09:00:45.731Z,28.18
2023-03-08T09:03:14.667Z,28.21
2023-03-08T09:05:45.984Z,28.24
2023-03-08T09:08:14.722Z,28.09
2023-03-08T09:10:44.398Z,27.87
2023-03-08T09:13:14.280Z,27.79
2023-03-08T09:15:44.291Z,27.80
2023-03-08T09:18:13.338Z,27.82
2023-03-08T09:20:42.570Z,27.75
2023-03-08T09:23:12.409Z,27.81
2023-03-08T09:25:41.615Z,27.80
2023-03-08T09:28:13.557Z,27.85
2023-03-08T09:30:42.300Z,27.86
2023-03-08T09:33:12.078Z,27.86
2023-03-08T09:35:40.992Z,27.89
2023-03-08T09:38:10.217Z,27.91
2023-03-08T09:41:02.918Z,27.95
2023-03-08T09:43:55.903Z,28.24
2023-03-08T09:46:35.042Z,28.14
2023-03-08T09:49:13.315Z,28.05
2023-03-08T09:51:46.249Z,27.93
2023-03-08T09:54:22.203Z,27.88
2023-03-08T09:56:54.279Z,27.84
2023-03-08T09:59:32.185Z,27.72
2023-03-08T10:02:05.581Z,27.03
2023-03-08T10:05:13.422Z,26.94
2023-03-08T10:08:01.011Z,27.32
2023-03-08T10:10:41.736Z,27.30
2023-03-08T10:13:32.199Z,26.52
2023-03-08T10:16:25.248Z,26.42
2023-03-08T10:19:05.879Z,26.48
2023-03-08T10:21:38.669Z,26.45
2023-03-08T10:24:08.983Z,26.45
2023-03-08T10:26:38.421Z,26.36
2023-03-08T10:29:08.411Z,26.43
2023-03-08T10:31:39.168Z,26.48
2023-03-08T10:34:25.829Z,26.38
2023-03-08T10:37:05.460Z,26.38
2023-03-08T10:39:38.164Z,26.39
2023-03-08T10:42:18.035Z,26.42
2023-03-08T10:45:13.904Z,26.42
2023-03-08T10:47:42.778Z,26.31
2023-03-08T10:50:30.165Z,26.30
2023-03-08T10:53:20.304Z,26.43
2023-03-08T10:55:52.409Z,26.39
2023-03-08T10:58:40.235Z,26.29
2023-03-08T11:01:31.766Z,26.35
2023-03-08T11:04:16.509Z,26.48
2023-03-08T11:06:48.897Z,26.88
2023-03-08T11:09:28.700Z,27.22
2023-03-08T11:12:00.317Z,26.37
2023-03-08T11:14:30.995Z,26.22
2023-03-08T11:17:38.296Z,26.26
2023-03-08T11:20:42.214Z,26.39
2023-03-08T11:23:18.095Z,26.44
2023-03-08T11:26:01.623Z,26.44
2023-03-08T11:28:46.692Z,26.49
2023-03-08T11:31:37.798Z,26.42
2023-03-08T11:34:24.315Z,27.20
2023-03-08T11:36:58.946Z,27.08
2023-03-08T11:39:30.772Z,27.06
2023-03-08T11:42:15.024Z,27.30
2023-03-08T11:44:58.174Z,27.88
2023-03-08T11:47:45.808Z,27.23
2023-03-08T11:50:26.266Z,27.03
2023-03-08T11:53:32.782Z,26.99
2023-03-08T11:56:36.295Z,27.01
2023-03-08T11:59:25.591Z,26.84
2023-03-08T12:02:04.447Z,26.79
2023-03-08T12:05:08.557Z,26.70
2023-03-08T12:07:56.295Z,26.95
2023-03-08T12:10:50.537Z,27.25
2023-03-08T12:13:30.467Z,27.18
2023-03-08T12:16:04.374Z,27.34
2023-03-08T12:18:55.613Z,27.36
2023-03-08T12:21:45.941Z,27.64
2023-03-08T12:24:41.313Z,27.75
2023-03-08T12:27:31.050Z,27.95
2023-03-08T12:30:22.192Z,28.25
2023-03-08T12:32:54.351Z,28.32
2023-03-08T12:35:24.037Z,29.62
2023-03-08T12:38:26.652Z,28.66
2023-03-08T12:40:57.938Z,28.94
2023-03-08T12:43:26.362Z,29.28
2023-03-08T12:46:08.747Z,29.66
2023-03-08T12:48:47.999Z,29.76
2023-03-08T12:51:17.359Z,29.92
2023-03-08T12:53:49.730Z,29.93
2023-03-08T12:56:50.273Z,29.93
2023-03-08T12:59:19.925Z,30.11
2023-03-08T13:02:00.030Z,30.90
2023-03-08T13:04:41.768Z,30.36
2023-03-08T13:07:26.144Z,30.62
2023-03-08T13:10:08.069Z,30.37
2023-03-08T13:13:13.827Z,30.65
2023-03-08T13:15:51.137Z,30.78
2023-03-08T13:18:21.896Z,30.82
2023-03-08T13:21:30.678Z,31.10
2023-03-08T13:24:22.042Z,31.10
2023-03-08T13:27:05.921Z,31.08
2023-03-08T13:29:36.665Z,31.04
2023-03-08T13:32:19.193Z,31.07
2023-03-08T13:35:03.026Z,31.04
2023-03-08T13:37:33.782Z,30.93
2023-03-08T13:40:02.609Z,31.02
2023-03-08T13:42:32.228Z,30.97
2023-03-08T13:45:18.203Z,31.40
2023-03-08T13:47:48.372Z,32.01
2023-03-08T13:50:38.356Z,30.89
2023-03-08T13:53:17.950Z,31.52
2023-03-08T13:55:51.755Z,30.60
2023-03-08T13:59:00.286Z,30.32
2023-03-08T14:01:34.163Z,30.25
2023-03-08T14:04:12.699Z,30.21
2023-03-08T14:06:56.716Z,30.21
2023-03-08T14:09:29.673Z,30.15
2023-03-08T14:12:05.945Z,30.04
2023-03-08T14:14:41.927Z,30.03
2023-03-08T14:17:21.820Z,30.07
2023-03-08T14:19:56.512Z,30.01
2023-03-08T14:22:39.717Z,30.15
2023-03-08T14:25:26.377Z,30.36
2023-03-08T14:27:58.467Z,30.33
2023-03-08T14:30:31.325Z,30.39
2023-03-08T14:33:16.603Z,30.59
2023-03-08T14:35:59.541Z,30.50
2023-03-08T14:38:35.162Z,30.44
2023-03-08T14:41:12.359Z,30.40
2023-03-08T14:43:48.496Z,30.47
2023-03-08T14:46:21.947Z,30.36
2023-03-08T14:49:02.219Z,31.30
2023-03-08T14:51:44.374Z,30.80
2023-03-08T14:54:36.203Z,30.60
2023-03-08T14:57:24.362Z,30.52
2023-03-08T14:59:54.684Z,30.37
2023-03-08T15:02:24.271Z,29.54
2023-03-08T15:04:54.156Z,30.09
2023-03-08T15:07:25.330Z,30.31
2023-03-08T15:09:54.419Z,30.25
2023-03-08T15:12:24.394Z,30.26
2023-03-08T15:14:53.535Z,30.51
2023-03-08T15:17:23.229Z,30.04
2023-03-08T15:19:53.087Z,29.30
2023-03-08T15:22:22.528Z,30.34
2023-03-08T15:24:52.537Z,30.35
2023-03-08T15:27:21.723Z,30.37
2023-03-08T15:29:50.159Z,30.92
2023-03-08T15:32:18.568Z,31.04
2023-03-08T15:34:48.619Z,31.51
2023-03-08T15:37:17.914Z,31.72
2023-03-08T15:39:46.835Z,31.37
2023-03-08T15:42:15.961Z,31.21
2023-03-08T15:44:44.820Z,31.37
2023-03-08T15:47:14.340Z,31.48
2023-03-08T15:49:44.126Z,31.71
2023-03-08T15:52:14.436Z,31.89
2023-03-08T15:54:48.106Z,31.52
2023-03-08T15:57:16.713Z,31.37
2023-03-08T15:59:46.081Z,31.26
2023-03-08T16:02:17.587Z,31.18
2023-03-08T16:04:48.438Z,31.38
2023-03-08T16:07:20.338Z,31.49
2023-03-08T16:09:49.873Z,32.42
2023-03-08T16:12:18.769Z,32.74
2023-03-08T16:14:50.075Z,32.80
2023-03-08T16:17:19.730Z,32.81
2023-03-08T16:19:48.436Z,32.87
2023-03-08T16:22:17.520Z,32.97
2023-03-08T16:24:46.727Z,33.04
2023-03-08T16:27:16.572Z,33.11
2023-03-08T16:29:45.888Z,33.15
2023-03-08T16:32:15.971Z,33.19
2023-03-08T16:34:44.456Z,33.23
2023-03-08T16:37:13.804Z,33.24
2023-03-08T16:39:43.124Z,33.19
2023-03-08T16:42:17.881Z,33.27
2023-03-08T16:44:54.574Z,33.43
2023-03-08T16:47:26.423Z,33.47
2023-03-08T16:49:56.580Z,33.56
2023-03-08T16:52:26.263Z,33.67
2023-03-08T16:54:58.481Z,33.61
2023-03-08T16:57:28.881Z,33.52
2023-03-08T16:59:58.430Z,32.42
2023-03-08T17:02:29.222Z,32.22
2023-03-08T17:04:58.469Z,32.45
2023-03-08T17:07:28.983Z,32.51
2023-03-08T17:10:00.667Z,32.59
2023-03-08T17:12:33.394Z,32.58
2023-03-08T17:15:06.061Z,32.52
2023-03-08T17:17:35.479Z,32.63
2023-03-08T17:20:05.954Z,33.24
2023-03-08T17:22:36.114Z,33.90
2023-03-08T17:25:05.332Z,34.20
2023-03-08T17:27:34.792Z,33.65
2023-03-08T17:30:06.171Z,32.97
2023-03-08T17:32:36.668Z,34.24
2023-03-08T17:35:06.058Z,33.04
2023-03-08T17:37:42.015Z,33.07
2023-03-08T17:40:14.074Z,33.10
2023-03-08T17:42:44.476Z,33.04
2023-03-08T17:45:14.395Z,33.05
2023-03-08T17:47:44.239Z,33.98
2023-03-08T17:50:14.328Z,34.44
2023-03-08T17:52:44.409Z,33.65
2023-03-08T17:55:13.794Z,33.51
2023-03-08T17:57:42.604Z,33.57
2023-03-08T18:00:14.082Z,33.47
2023-03-08T18:02:43.127Z,33.49
2023-03-08T18:05:14.544Z,33.57
2023-03-08T18:07:44.737Z,33.84
2023-03-08T18:10:14.713Z,33.89
2023-03-08T18:12:45.369Z,34.13
2023-03-08T18:15:15.398Z,34.05
2023-03-08T18:17:44.901Z,34.05
2023-03-08T18:20:14.970Z,34.06
2023-03-08T18:22:45.533Z,34.14
2023-03-08T18:25:14.764Z,34.16
2023-03-08T18:27:44.478Z,34.25
2023-03-08T18:30:14.822Z,34.16
2023-03-08T18:32:44.361Z,34.24
2023-03-08T18:35:14.118Z,34.33
2023-03-08T18:37:42.560Z,34.45
2023-03-08T18:40:13.723Z,34.56
2023-03-08T18:42:44.626Z,34.67
2023-03-08T18:45:15.521Z,34.78
2023-03-08T18:47:45.125Z,34.83
2023-03-08T18:50:14.328Z,34.87
2023-03-08T18:52:42.683Z,34.91
2023-03-08T18:55:12.596Z,35.82
2023-03-08T18:57:42.176Z,35.33
2023-03-08T19:00:13.701Z,35.26
2023-03-08T19:02:42.798Z,35.28
2023-03-08T19:05:14.506Z,35.29
2023-03-08T19:07:43.976Z,35.34
2023-03-08T19:10:15.465Z,35.40
2023-03-08T19:12:45.685Z,35.26
2023-03-08T19:15:14.816Z,35.23
2023-03-08T19:17:44.610Z,35.24
2023-03-08T19:20:14.966Z,35.36
2023-03-08T19:22:44.607Z,35.46
2023-03-08T19:25:13.811Z,35.57
2023-03-08T19:27:42.687Z,35.80
2023-03-08T19:30:14.070Z,35.70
2023-03-08T19:32:42.981Z,35.66
2023-03-08T19:35:12.870Z,35.66
2023-03-08T19:37:43.235Z,35.76
2023-03-08T19:40:14.245Z,35.67
2023-03-08T19:42:42.645Z,35.63
2023-03-08T19:45:14.131Z,35.45
2023-03-08T19:47:44.414Z,35.61
2023-03-08T19:50:14.851Z,35.47
2023-03-08T19:52:44.466Z,35.48
2023-03-08T19:55:13.728Z,35.36
2023-03-08T19:57:42.516Z,35.28
2023-03-08T20:00:14.350Z,35.25
2023-03-08T20:02:46.280Z,35.50
2023-03-08T20:05:14.874Z,35.77
2023-03-08T20:07:44.545Z,35.68
2023-03-08T20:10:18.395Z,35.65
2023-03-08T20:12:48.719Z,36.04
2023-03-08T20:15:18.108Z,36.67
2023-03-08T20:17:48.413Z,36.90
2023-03-08T20:20:17.676Z,37.07
2023-03-08T20:22:46.858Z,36.35
2023-03-08T20:25:16.738Z,35.78
2023-03-08T20:27:45.967Z,35.63
2023-03-08T20:30:16.089Z,35.50
2023-03-08T20:32:44.780Z,35.41
2023-03-08T20:35:16.037Z,35.52
2023-03-08T20:37:45.547Z,35.47
2023-03-08T20:40:17.887Z,35.40
2023-03-08T20:42:46.989Z,35.37
2023-03-08T20:45:16.629Z,35.36
2023-03-08T20:47:48.054Z,35.45
2023-03-08T20:50:18.285Z,35.43
2023-03-08T20:52:48.452Z,35.29
2023-03-08T20:55:18.071Z,35.11
2023-03-08T20:57:46.903Z,35.30
2023-03-08T21:00:16.803Z,35.31
2023-03-08T21:02:45.971Z,35.21
2023-03-08T21:05:14.869Z,35.21
2023-03-08T21:07:44.324Z,35.23
2023-03-08T21:10:12.942Z,35.23
2023-03-08T21:12:42.221Z,35.27
2023-03-08T21:15:12.507Z,35.31
2023-03-08T21:17:41.807Z,35.83
2023-03-08T21:20:12.714Z,35.81
2023-03-08T21:22:42.945Z,35.93
2023-03-08T21:25:13.573Z,35.93
2023-03-08T21:27:42.663Z,35.81
2023-03-08T21:30:12.804Z,35.73
2023-03-08T21:32:41.709Z,35.74
2023-03-08T21:35:11.188Z,35.89
2023-03-08T21:37:40.667Z,35.95
2023-03-08T21:40:10.243Z,35.93
2023-03-08T21:42:39.439Z,36.00
2023-03-08T21:45:10.165Z,36.05
2023-03-08T21:47:38.584Z,35.90
2023-03-08T21:50:10.062Z,35.91
2023-03-08T21:52:38.797Z,35.90
2023-03-08T21:55:09.939Z,36.36
2023-03-08T21:57:41.028Z,35.96
2023-03-08T22:00:12.043Z,35.81
2023-03-08T22:02:46.471Z,35.51
2023-03-08T22:05:16.572Z,35.60
2023-03-08T22:07:46.091Z,35.54
2023-03-08T22:10:15.251Z,35.40
2023-03-08T22:12:44.699Z,35.13
2023-03-08T22:15:16.423Z,35.21
2023-03-08T22:17:45.697Z,35.08
2023-03-08T22:20:14.787Z,35.21
2023-03-08T22:22:48.571Z,35.22
2023-03-08T22:25:18.611Z,35.11
2023-03-08T22:27:48.412Z,34.99
2023-03-08T22:30:17.872Z,34.92
2023-03-08T22:32:47.116Z,35.04
2023-03-08T22:35:17.753Z,35.12
2023-03-08T22:37:47.085Z,34.99
2023-03-08T22:40:17.700Z,34.97
2023-03-08T22:42:48.353Z,34.97
2023-03-08T22:45:18.064Z,34.87
2023-03-08T22:47:46.979Z,34.86
2023-03-08T22:50:16.482Z,34.91
2023-03-08T22:52:45.957Z,34.97
2023-03-08T22:55:14.594Z,34.96
2023-03-08T22:57:44.570Z,35.02
2023-03-08T23:00:16.408Z,34.99
2023-03-08T23:02:46.918Z,34.93
2023-03-08T23:05:19.611Z,34.85
2023-03-08T23:07:51.265Z,34.84
2023-03-08T23:10:22.260Z,34.98
2023-03-08T23:12:51.090Z,35.14
2023-03-08T23:15:20.590Z,34.96
2023-03-08T23:17:49.458Z,34.94
2023-03-08T23:20:20.676Z,34.97
2023-03-08T23:22:52.422Z,35.00
2023-03-08T23:25:21.806Z,35.06
2023-03-08T23:27:51.162Z,34.96
2023-03-08T23:30:20.572Z,34.87
2023-03-08T23:32:49.755Z,34.93
2023-03-08T23:35:18.462Z,34.90
2023-03-08T23:37:50.789Z,34.86
2023-03-08T23:40:20.672Z,34.88
2023-03-08T23:42:49.665Z,34.72
2023-03-08T23:45:18.772Z,34.70
2023-03-08T23:47:48.412Z,34.74
2023-03-08T23:50:18.107Z,34.74
2023-03-08T23:52:46.947Z,34.69
2023-03-08T23:55:17.293Z,34.96
2023-03-08T23:57:46.242Z,35.20
